Time;durP1;ratioP1;P1;durP2;ratioP2;P2;SDS_P1;SDS_P2;PMS_P1;PMS_P2;Temp;Humidity;BMP_temperature;BMP_pressure;BME280_temperature;BME280_humidity;BME280_pressure;Samples;Min_cycle;Max_cycle;Signal;HPM_P1;HPM_P2
2022/08/08 00:01:11;;;;;;;3.55;1.45;;;19.30;51.60;;;;;;4936443;28;20494;-83
2022/08/08 00:03:57;;;;;;;3.10;1.52;;;19.30;51.60;;;;;;4959794;28;20031;-83
2022/08/08 00:06:55;;;;;;;1.92;1.50;;;19.20;52.50;;;;;;4945205;28;20513;-83
2022/08/08 00:09:38;;;;;;;3.30;1.75;;;19.10;52.50;;;;;;4946965;28;20039;-83
2022/08/08 00:12:08;;;;;;;2.77;1.50;;;19.00;52.50;;;;;;4945123;28;20027;-83
2022/08/08 00:14:43;;;;;;;1.77;1.40;;;19.00;51.80;;;;;;4926469;28;20500;-83
2022/08/08 00:17:16;;;;;;;1.73;1.40;;;18.90;52.70;;;;;;4931083;28;20062;-83
2022/08/08 00:19:49;;;;;;;2.53;1.70;;;18.90;52.20;;;;;;4944617;28;20547;-84
2022/08/08 00:22:21;;;;;;;2.47;1.60;;;18.80;52.30;;;;;;4955576;28;20109;-84
2022/08/08 00:24:56;;;;;;;2.80;1.50;;;18.70;52.40;;;;;;4957962;28;20475;-83
2022/08/08 00:27:25;;;;;;;2.03;1.40;;;18.70;53.00;;;;;;4960872;28;21173;-83
2022/08/08 00:30:03;;;;;;;2.33;1.60;;;18.60;52.50;;;;;;4951052;28;20508;-84
2022/08/08 00:33:00;;;;;;;3.00;1.70;;;18.60;53.60;;;;;;4942583;28;20067;-83
2022/08/08 00:35:26;;;;;;;2.75;1.50;;;18.50;54.20;;;;;;4973898;28;20059;-84
2022/08/08 00:37:54;;;;;;;1.97;1.40;;;18.40;52.50;;;;;;4953819;28;20522;-84
2022/08/08 00:40:29;;;;;;;2.72;1.50;;;18.40;52.60;;;;;;4949773;28;20499;-84
2022/08/08 00:43:32;;;;;;;2.08;1.50;;;18.30;53.90;;;;;;4953239;28;20027;-84
2022/08/08 00:46:20;;;;;;;2.30;1.50;;;18.30;54.60;;;;;;4948857;28;20291;-84
2022/08/08 00:49:13;;;;;;;2.22;1.70;;;18.20;54.60;;;;;;4969805;28;20027;-84
2022/08/08 00:51:58;;;;;;;2.22;1.50;;;18.20;54.80;;;;;;4956897;28;20045;-83
2022/08/08 00:54:43;;;;;;;2.55;1.60;;;18.10;54.50;;;;;;4955684;28;20031;-83
2022/08/08 00:57:32;;;;;;;2.53;1.65;;;18.00;54.80;;;;;;4935584;28;20343;-83
2022/08/08 01:00:18;;;;;;;3.73;1.70;;;18.00;55.30;;;;;;4954982;28;20328;-84
2022/08/08 01:03:08;;;;;;;2.40;1.77;;;18.00;54.50;;;;;;4956029;28;20258;-82
2022/08/08 01:06:09;;;;;;;2.50;1.85;;;17.90;54.50;;;;;;4965110;28;20397;-82
2022/08/08 01:08:34;;;;;;;2.58;1.80;;;17.90;55.30;;;;;;4934738;28;20134;-82
2022/08/08 01:11:11;;;;;;;4.57;1.70;;;17.90;53.90;;;;;;4942311;28;20038;-82
2022/08/08 01:14:02;;;;;;;2.78;1.80;;;17.80;55.60;;;;;;4951045;28;20240;-82
2022/08/08 01:16:37;;;;;;;3.63;2.00;;;17.80;56.00;;;;;;4947283;28;20026;-82
2022/08/08 01:19:18;;;;;;;3.85;2.10;;;17.80;55.30;;;;;;4948328;28;20061;-82
2022/08/08 01:21:53;;;;;;;4.00;2.27;;;17.80;54.60;;;;;;4969316;28;20031;-82
2022/08/08 01:24:25;;;;;;;4.30;2.00;;;17.70;54.70;;;;;;4948798;28;20033;-82
2022/08/08 01:27:22;;;;;;;2.90;2.00;;;17.70;55.80;;;;;;4959497;28;22043;-82
2022/08/08 01:30:29;;;;;;;3.75;1.85;;;17.70;56.00;;;;;;4948315;28;20030;-82
2022/08/08 01:33:23;;;;;;;4.00;1.88;;;17.60;57.10;;;;;;4973741;28;20424;-82
2022/08/08 01:36:20;;;;;;;3.40;1.80;;;17.60;57.00;;;;;;4938173;28;20499;-82
2022/08/08 01:39:11;;;;;;;3.65;1.90;;;17.60;56.30;;;;;;4944589;28;20535;-82
2022/08/08 01:41:58;;;;;;;3.03;1.95;;;17.60;56.20;;;;;;4948406;28;20401;-82
2022/08/08 01:44:43;;;;;;;4.05;2.08;;;17.50;56.80;;;;;;4955750;28;20427;-82
2022/08/08 01:47:23;;;;;;;3.28;2.20;;;17.50;57.30;;;;;;4946689;28;20092;-82
2022/08/08 01:50:15;;;;;;;3.30;2.07;;;17.40;55.40;;;;;;4934869;28;20027;-82
2022/08/08 01:52:50;;;;;;;3.00;2.05;;;17.40;57.60;;;;;;4932569;28;20039;-82
2022/08/08 01:55:34;;;;;;;2.95;1.83;;;17.40;56.80;;;;;;4950294;28;20027;-82
2022/08/08 01:58:39;;;;;;;3.47;1.95;;;17.40;57.20;;;;;;4962235;28;20081;-82
2022/08/08 02:01:49;;;;;;;3.70;2.10;;;17.30;57.70;;;;;;4935950;28;20305;-83
2022/08/08 02:04:53;;;;;;;3.07;2.00;;;17.20;57.70;;;;;;4936211;28;20455;-82
2022/08/08 02:07:27;;;;;;;4.28;2.05;;;17.20;57.70;;;;;;4959079;28;20604;-82
2022/08/08 02:10:13;;;;;;;2.70;1.70;;;17.10;56.30;;;;;;4934484;28;20097;-85
2022/08/08 02:12:47;;;;;;;2.90;1.90;;;17.00;57.80;;;;;;4953613;28;20043;-82
2022/08/08 02:15:22;;;;;;;3.10;1.75;;;17.00;57.60;;;;;;4944033;28;20039;-82
2022/08/08 02:17:55;;;;;;;2.97;1.90;;;17.00;57.10;;;;;;4957971;28;20509;-82
2022/08/08 02:20:27;;;;;;;2.85;1.90;;;16.90;56.60;;;;;;4932718;28;20050;-82
2022/08/08 02:23:03;;;;;;;2.75;1.80;;;16.90;57.30;;;;;;4944291;28;20496;-82
2022/08/08 02:26:00;;;;;;;2.90;1.90;;;16.80;56.50;;;;;;4931904;28;20059;-82
2022/08/08 02:28:45;;;;;;;3.72;2.00;;;16.80;57.80;;;;;;4943573;28;20057;-83
2022/08/08 02:31:32;;;;;;;3.50;1.90;;;16.70;56.70;;;;;;4936551;28;23841;-82
2022/08/08 02:34:36;;;;;;;2.97;2.05;;;16.70;57.50;;;;;;4954191;28;20034;-83
2022/08/08 02:37:22;;;;;;;2.90;2.00;;;16.60;58.70;;;;;;4925625;28;20634;-82
2022/08/08 02:40:07;;;;;;;3.75;2.10;;;16.60;58.60;;;;;;4951047;28;20034;-83
2022/08/08 02:42:32;;;;;;;3.25;2.20;;;16.60;57.00;;;;;;4958714;28;20046;-82
2022/08/08 02:45:07;;;;;;;4.10;2.00;;;16.50;57.00;;;;;;4937961;28;20300;-82
2022/08/08 02:47:54;;;;;;;3.03;2.00;;;16.50;58.00;;;;;;4937014;28;20037;-83
2022/08/08 02:50:53;;;;;;;3.20;1.80;;;16.40;57.70;;;;;;4929444;28;20073;-82
2022/08/08 02:53:53;;;;;;;2.97;2.00;;;16.40;59.00;;;;;;4944713;28;20423;-82
2022/08/08 02:56:46;;;;;;;3.40;1.90;;;16.40;59.00;;;;;;4952453;28;20058;-82
2022/08/08 02:59:17;;;;;;;3.42;2.08;;;16.30;58.70;;;;;;4953411;28;20043;-83
2022/08/08 03:02:01;;;;;;;3.50;2.15;;;16.30;57.70;;;;;;4932237;28;20271;-82
2022/08/08 03:04:56;;;;;;;4.45;2.13;;;16.20;57.80;;;;;;4962881;28;20023;-82
2022/08/08 03:07:49;;;;;;;2.90;1.90;;;16.20;60.00;;;;;;4946697;28;20033;-82
2022/08/08 03:11:03;;;;;;;4.28;2.17;;;16.20;59.10;;;;;;4958868;28;20023;-82
2022/08/08 03:13:44;;;;;;;3.10;2.08;;;16.20;60.30;;;;;;4947615;28;20114;-82
2022/08/08 03:16:38;;;;;;;4.35;2.15;;;16.20;58.90;;;;;;4957265;28;20716;-82
2022/08/08 03:19:22;;;;;;;3.58;2.08;;;16.10;59.60;;;;;;4950529;28;20138;-82
2022/08/08 03:21:47;;;;;;;3.80;2.33;;;16.10;59.30;;;;;;4936725;28;20031;-82
2022/08/08 03:24:19;;;;;;;3.70;2.50;;;16.10;58.40;;;;;;4942736;28;20533;-82
2022/08/08 03:26:57;;;;;;;3.43;2.23;;;16.10;59.20;;;;;;4956635;28;20327;-83
2022/08/08 03:29:28;;;;;;;4.20;2.42;;;16.10;59.50;;;;;;4951965;28;20022;-83
2022/08/08 03:34:39;;;;;;;4.45;2.35;;;16.10;59.00;;;;;;4956038;28;20569;-82
2022/08/08 03:37:09;;;;;;;4.20;2.70;;;16.10;59.00;;;;;;4948193;28;20379;-83
2022/08/08 03:39:35;;;;;;;6.03;2.97;;;16.10;59.70;;;;;;4956883;28;20035;-82
2022/08/08 03:42:01;;;;;;;5.10;2.75;;;16.10;59.30;;;;;;4961339;28;20586;-83
2022/08/08 03:44:33;;;;;;;4.82;2.72;;;16.10;59.60;;;;;;4949823;28;20163;-82
2022/08/08 03:46:59;;;;;;;5.35;2.85;;;16.10;60.50;;;;;;4959021;28;20077;-83
2022/08/08 03:49:26;;;;;;;4.00;2.73;;;16.10;59.60;;;;;;4933195;28;20121;-82
2022/08/08 03:51:52;;;;;;;4.65;2.90;;;16.10;59.80;;;;;;4960609;28;20056;-83
2022/08/08 03:54:19;;;;;;;4.78;2.95;;;16.00;59.90;;;;;;4917346;28;20105;-83
2022/08/08 03:56:45;;;;;;;4.38;2.88;;;16.10;60.00;;;;;;4951227;28;20035;-83
2022/08/08 03:59:11;;;;;;;4.60;3.10;;;16.00;60.10;;;;;;4953146;28;20041;-83
2022/08/08 04:01:38;;;;;;;4.38;2.80;;;16.00;60.00;;;;;;4946208;28;20027;-82
2022/08/08 04:04:04;;;;;;;4.25;2.97;;;16.00;60.20;;;;;;4939732;28;20200;-83
2022/08/08 04:06:30;;;;;;;5.55;3.17;;;16.00;60.20;;;;;;4972431;28;20122;-83
2022/08/08 04:09:02;;;;;;;5.83;3.40;;;16.00;60.30;;;;;;4919144;28;20351;-83
2022/08/08 04:11:30;;;;;;;5.20;3.08;;;16.00;61.10;;;;;;4948790;28;20086;-83
2022/08/08 04:13:55;;;;;;;4.20;2.72;;;16.00;60.90;;;;;;4947288;28;20026;-83
2022/08/08 04:16:21;;;;;;;4.63;3.20;;;16.00;60.90;;;;;;4951674;28;20057;-82
2022/08/08 04:18:47;;;;;;;5.47;3.30;;;15.90;60.70;;;;;;4954881;28;20427;-82
2022/08/08 04:21:14;;;;;;;4.97;3.10;;;15.90;60.90;;;;;;4961201;28;20027;-83
2022/08/08 04:23:40;;;;;;;5.87;3.07;;;15.90;61.00;;;;;;4927826;28;20047;-83
2022/08/08 04:26:06;;;;;;;5.25;3.03;;;16.00;61.00;;;;;;4914393;28;20623;-83
2022/08/08 04:28:32;;;;;;;4.95;3.33;;;16.00;61.20;;;;;;4946892;28;20324;-83
2022/08/08 04:30:58;;;;;;;5.20;3.45;;;15.90;61.20;;;;;;4960438;28;20969;-83
2022/08/08 04:33:24;;;;;;;6.40;3.70;;;15.90;61.30;;;;;;4948521;28;20196;-83
2022/08/08 04:35:50;;;;;;;5.40;3.67;;;16.00;61.50;;;;;;4937996;28;20401;-83
2022/08/08 04:38:15;;;;;;;5.03;3.13;;;16.00;61.80;;;;;;4945497;28;20026;-83
2022/08/08 04:40:41;;;;;;;6.13;3.53;;;16.00;62.70;;;;;;4938478;28;20085;-83
2022/08/08 04:43:08;;;;;;;4.95;3.22;;;16.00;61.90;;;;;;4958510;28;20098;-83
2022/08/08 04:45:34;;;;;;;4.85;3.22;;;16.00;62.00;;;;;;4933650;28;20394;-83
2022/08/08 04:48:00;;;;;;;5.60;3.58;;;16.00;62.00;;;;;;4965525;28;20011;-83
2022/08/08 04:50:26;;;;;;;5.18;3.15;;;16.00;62.10;;;;;;4936580;28;20128;-82
2022/08/08 04:52:53;;;;;;;5.97;3.30;;;16.00;62.30;;;;;;4946229;28;20019;-82
2022/08/08 04:55:19;;;;;;;5.45;3.50;;;16.00;62.30;;;;;;4937513;28;20382;-82
2022/08/08 04:57:45;;;;;;;5.13;3.33;;;16.00;62.30;;;;;;4962894;28;20056;-83
2022/08/08 05:00:11;;;;;;;5.60;3.27;;;16.00;62.40;;;;;;4955835;28;20475;-82
2022/08/08 05:02:37;;;;;;;6.75;3.60;;;16.00;62.50;;;;;;4931107;28;20247;-82
2022/08/08 05:05:03;;;;;;;5.78;3.70;;;16.00;62.10;;;;;;4946469;28;20572;-82
2022/08/08 05:07:30;;;;;;;5.63;3.67;;;16.10;62.90;;;;;;4953603;28;20039;-83
2022/08/08 05:09:55;;;;;;;5.55;3.63;;;16.10;63.10;;;;;;4924074;28;20694;-83
2022/08/08 05:12:21;;;;;;;5.20;3.33;;;16.10;63.20;;;;;;4940566;28;20049;-82
2022/08/08 05:14:48;;;;;;;6.25;3.60;;;16.20;63.40;;;;;;4957343;28;20649;-83
2022/08/08 05:17:13;;;;;;;7.22;3.75;;;16.20;63.40;;;;;;4933429;28;20396;-83
2022/08/08 05:19:39;;;;;;;5.70;3.40;;;16.20;63.60;;;;;;4945831;28;20030;-83
2022/08/08 05:22:06;;;;;;;5.93;3.65;;;16.20;63.60;;;;;;4952294;28;20272;-83
2022/08/08 05:24:32;;;;;;;5.80;3.80;;;16.30;63.90;;;;;;4932967;28;20294;-83
2022/08/08 05:26:58;;;;;;;5.47;3.42;;;16.30;63.90;;;;;;4930190;28;20128;-83
2022/08/08 05:29:24;;;;;;;5.50;3.40;;;16.40;64.20;;;;;;4957850;28;20110;-83
2022/08/08 05:31:50;;;;;;;6.40;4.10;;;16.40;64.40;;;;;;4918573;28;20234;-81
2022/08/08 05:34:39;;;;;;;5.57;3.58;;;16.40;64.40;;;;;;4957656;28;20046;-81
2022/08/08 05:37:05;;;;;;;5.60;3.70;;;16.50;66.80;;;;;;4947977;28;20725;-81
2022/08/08 05:39:31;;;;;;;6.73;4.30;;;16.50;64.50;;;;;;4926349;28;20023;-81
2022/08/08 05:41:58;;;;;;;6.65;3.80;;;16.50;64.80;;;;;;4922415;28;20287;-81
2022/08/08 05:44:30;;;;;;;6.85;3.85;;;16.60;65.00;;;;;;4951035;28;20037;-81
2022/08/08 05:46:58;;;;;;;7.70;4.00;;;16.60;65.30;;;;;;4931932;28;20026;-81
2022/08/08 05:49:24;;;;;;;5.75;3.65;;;16.60;65.20;;;;;;4948099;28;21052;-83
2022/08/08 05:51:50;;;;;;;6.93;4.03;;;16.70;65.30;;;;;;4948066;28;20232;-81
2022/08/08 05:54:17;;;;;;;7.22;4.10;;;16.80;65.40;;;;;;4935952;28;20031;-81
2022/08/08 05:56:44;;;;;;;5.77;3.97;;;16.80;65.50;;;;;;4906098;28;20129;-81
2022/08/08 05:59:19;;;;;;;5.72;3.90;;;16.80;65.70;;;;;;4954953;28;20022;-82
2022/08/08 06:01:52;;;;;;;6.10;3.72;;;16.90;66.50;;;;;;4938574;28;20035;-81
2022/08/08 06:04:23;;;;;;;6.32;3.92;;;16.90;66.70;;;;;;4941666;28;20276;-81
2022/08/08 06:06:53;;;;;;;6.65;3.70;;;17.00;66.40;;;;;;4964662;28;20080;-81
2022/08/08 06:09:33;;;;;;;5.83;3.53;;;17.00;66.10;;;;;;4919893;28;20065;-82
2022/08/08 06:12:03;;;;;;;6.65;3.83;;;17.10;66.40;;;;;;4921821;28;20034;-84
2022/08/08 06:14:29;;;;;;;5.30;3.53;;;17.20;66.20;;;;;;4956050;28;20035;-82
2022/08/08 06:17:00;;;;;;;6.55;3.40;;;17.20;66.20;;;;;;4937598;28;20211;-82
2022/08/08 06:19:27;;;;;;;5.22;3.25;;;17.30;66.60;;;;;;4956114;28;20031;-81
2022/08/08 06:21:54;;;;;;;5.53;3.67;;;17.40;66.40;;;;;;4957176;28;20443;-81
2022/08/08 06:24:20;;;;;;;6.38;3.95;;;17.50;66.60;;;;;;4931297;28;20439;-82
2022/08/08 06:27:08;;;;;;;5.80;3.88;;;17.50;66.60;;;;;;4925240;28;20527;-81
2022/08/08 06:29:41;;;;;;;4.97;3.55;;;17.60;68.70;;;;;;4923071;28;20507;-81
2022/08/08 06:32:11;;;;;;;6.93;3.63;;;17.70;67.50;;;;;;4958564;28;20383;-82
2022/08/08 06:34:39;;;;;;;6.03;3.93;;;17.70;66.80;;;;;;4941075;28;20033;-81
2022/08/08 06:37:11;;;;;;;6.72;3.75;;;17.80;66.70;;;;;;4957512;28;20391;-81
2022/08/08 06:39:41;;;;;;;5.43;3.60;;;17.90;67.20;;;;;;4944942;28;20039;-81
2022/08/08 06:42:11;;;;;;;6.18;3.80;;;18.00;67.00;;;;;;4928950;28;20483;-81
2022/08/08 06:44:40;;;;;;;5.22;3.90;;;18.10;67.00;;;;;;4923208;28;20484;-80
2022/08/08 06:47:06;;;;;;;5.30;3.43;;;18.20;67.10;;;;;;4958394;28;20030;-82
2022/08/08 06:49:32;;;;;;;5.07;3.35;;;18.20;67.00;;;;;;4940251;28;20027;-80
2022/08/08 06:51:59;;;;;;;5.88;3.88;;;18.30;67.20;;;;;;4963280;28;20054;-80
2022/08/08 06:54:25;;;;;;;6.35;3.60;;;18.40;67.20;;;;;;4955570;28;20062;-80
2022/08/08 06:56:51;;;;;;;4.93;3.40;;;18.50;67.20;;;;;;4923764;28;20368;-81
2022/08/08 06:59:17;;;;;;;5.10;3.30;;;18.60;67.40;;;;;;4918866;28;20074;-81
2022/08/08 07:01:51;;;;;;;5.60;3.42;;;18.70;67.40;;;;;;4944033;28;20086;-81
2022/08/08 07:04:17;;;;;;;4.78;3.40;;;18.90;68.10;;;;;;4952094;28;20073;-81
2022/08/08 07:06:54;;;;;;;5.23;3.23;;;19.00;67.30;;;;;;4930140;28;20039;-82
2022/08/08 07:09:24;;;;;;;4.65;3.00;;;19.10;67.60;;;;;;4947626;28;20058;-82
2022/08/08 07:11:51;;;;;;;5.43;3.13;;;19.20;67.30;;;;;;4952673;28;22551;-82
2022/08/08 07:14:22;;;;;;;5.35;3.08;;;19.40;67.50;;;;;;4913734;28;20038;-82
2022/08/08 07:17:03;;;;;;;5.72;3.22;;;19.50;67.30;;;;;;4940670;28;20242;-80
2022/08/08 07:19:40;;;;;;;5.27;3.13;;;19.60;67.90;;;;;;4941437;28;20395;-80
2022/08/08 07:22:08;;;;;;;5.45;3.10;;;19.80;67.70;;;;;;4932349;28;20289;-81
2022/08/08 07:24:44;;;;;;;4.55;3.08;;;19.90;67.10;;;;;;4954143;28;20023;-80
2022/08/08 07:27:12;;;;;;;4.32;2.70;;;20.00;67.10;;;;;;4943630;28;20054;-81
2022/08/08 07:29:38;;;;;;;4.13;2.70;;;20.20;66.90;;;;;;4924857;28;20039;-79
2022/08/08 07:32:06;;;;;;;4.17;2.60;;;20.40;66.80;;;;;;4947319;28;20027;-81
2022/08/08 07:34:33;;;;;;;3.20;2.35;;;20.40;66.70;;;;;;4949551;28;20030;-82
2022/08/08 07:37:02;;;;;;;4.30;2.40;;;20.60;66.70;;;;;;4941064;28;20039;-80
2022/08/08 07:39:30;;;;;;;3.60;2.25;;;20.70;66.40;;;;;;4931459;28;20118;-81
2022/08/08 07:41:58;;;;;;;3.05;2.33;;;20.90;66.20;;;;;;4958819;28;20224;-80
2022/08/08 07:44:24;;;;;;;3.50;2.27;;;21.00;66.00;;;;;;4927438;28;20031;-81
2022/08/08 07:46:50;;;;;;;4.13;2.45;;;21.10;65.90;;;;;;4928844;28;20019;-81
2022/08/08 07:49:16;;;;;;;3.47;2.20;;;21.20;65.80;;;;;;4957176;28;20027;-79
2022/08/08 07:51:42;;;;;;;3.40;2.07;;;21.40;65.70;;;;;;4949247;28;20683;-80
2022/08/08 07:54:17;;;;;;;3.53;2.30;;;21.50;65.40;;;;;;4948360;28;20628;-79
2022/08/08 07:57:12;;;;;;;3.70;1.98;;;21.60;65.40;;;;;;4948583;28;20096;-80
2022/08/08 07:59:59;;;;;;;1.95;1.50;;;21.80;65.60;;;;;;4938054;28;20035;-81
2022/08/08 08:02:35;;;;;;;4.05;1.98;;;22.00;65.80;;;;;;4932318;28;20023;-81
2022/08/08 08:05:04;;;;;;;2.83;1.80;;;22.30;66.00;;;;;;4950615;28;20022;-81
2022/08/08 08:07:33;;;;;;;3.00;1.80;;;22.60;65.70;;;;;;4951877;28;20031;-81
2022/08/08 08:10:02;;;;;;;2.97;1.90;;;22.80;65.10;;;;;;4929836;28;20023;-79
2022/08/08 08:12:28;;;;;;;2.55;1.75;;;23.00;64.40;;;;;;4949420;28;20031;-82
2022/08/08 08:15:01;;;;;;;2.27;1.67;;;23.20;64.40;;;;;;4946833;28;20081;-80
2022/08/08 08:17:28;;;;;;;3.00;1.77;;;23.40;64.00;;;;;;4916101;28;20342;-81
2022/08/08 08:19:57;;;;;;;2.38;1.63;;;23.70;64.40;;;;;;4952013;28;20259;-81
2022/08/08 08:22:23;;;;;;;2.70;1.70;;;23.90;64.00;;;;;;4957611;28;20498;-81
2022/08/08 08:24:48;;;;;;;2.37;1.80;;;24.10;64.00;;;;;;4937089;28;20697;-79
2022/08/08 08:27:16;;;;;;;2.00;1.80;;;24.40;63.80;;;;;;4950828;28;20039;-82
2022/08/08 08:29:42;;;;;;;3.05;1.77;;;24.70;63.50;;;;;;4943926;28;20034;-81
2022/08/08 08:32:07;;;;;;;2.00;1.63;;;24.90;63.50;;;;;;4897224;28;20026;-81
2022/08/08 08:34:35;;;;;;;2.63;1.60;;;25.20;63.60;;;;;;4950650;28;20552;-82
2022/08/08 08:37:02;;;;;;;1.98;1.70;;;25.60;63.60;;;;;;4948904;28;20042;-82
2022/08/08 08:39:28;;;;;;;2.65;1.90;;;26.00;64.00;;;;;;4949608;28;20023;-82
2022/08/08 08:41:56;;;;;;;2.53;1.73;;;26.40;63.80;;;;;;4942994;28;20650;-80
2022/08/08 08:44:24;;;;;;;1.80;1.60;;;26.90;63.80;;;;;;4932575;28;20023;-81
2022/08/08 08:46:51;;;;;;;3.58;1.70;;;27.50;63.20;;;;;;4923824;28;20486;-81
2022/08/08 08:49:16;;;;;;;2.28;1.55;;;28.00;62.70;;;;;;4956150;28;20031;-82
2022/08/08 08:51:45;;;;;;;2.47;1.58;;;28.50;62.00;;;;;;4951268;28;20279;-81
2022/08/08 08:54:11;;;;;;;3.43;1.70;;;29.00;60.60;;;;;;4954293;28;20039;-81
2022/08/08 08:56:38;;;;;;;2.05;1.50;;;29.40;59.90;;;;;;4943760;28;20027;-79
2022/08/08 08:59:04;;;;;;;1.52;1.42;;;29.80;59.20;;;;;;4941718;28;20023;-81
2022/08/08 09:01:36;;;;;;;1.73;1.63;;;30.30;58.10;;;;;;4912575;28;20030;-80
2022/08/08 09:04:12;;;;;;;3.38;1.70;;;30.70;56.10;;;;;;4930189;28;20024;-81
2022/08/08 09:06:40;;;;;;;2.13;1.47;;;31.10;55.00;;;;;;4949642;28;20508;-81
2022/08/08 09:09:33;;;;;;;2.47;1.90;;;31.50;55.70;;;;;;4929479;28;20090;-81
2022/08/08 09:12:01;;;;;;;1.67;1.58;;;32.00;53.90;;;;;;4954548;28;20031;-81
2022/08/08 09:14:28;;;;;;;2.20;1.80;;;32.30;53.40;;;;;;4949724;28;20035;-80
2022/08/08 09:16:54;;;;;;;2.58;1.60;;;32.50;52.60;;;;;;4966064;28;20027;-81
2022/08/08 09:19:20;;;;;;;2.60;1.60;;;32.90;52.20;;;;;;4925773;28;20219;-81
2022/08/08 09:21:46;;;;;;;1.83;1.55;;;33.10;51.40;;;;;;4939891;28;20031;-81
2022/08/08 09:24:13;;;;;;;1.73;1.50;;;33.30;50.40;;;;;;4952399;28;20032;-81
2022/08/08 09:26:52;;;;;;;2.37;1.60;;;33.50;49.10;;;;;;4948877;28;21323;-82
2022/08/08 09:29:23;;;;;;;1.77;1.50;;;33.70;46.70;;;;;;4931771;28;20752;-81
2022/08/08 09:32:02;;;;;;;1.88;1.60;;;33.90;47.20;;;;;;4947549;28;20090;-81
2022/08/08 09:34:33;;;;;;;2.30;1.48;;;34.10;46.90;;;;;;4903971;28;20027;-82
2022/08/08 09:37:07;;;;;;;2.47;1.80;;;34.30;48.10;;;;;;4945443;28;20526;-82
2022/08/08 09:39:46;;;;;;;2.63;1.80;;;34.50;45.50;;;;;;4962631;28;20424;-81
2022/08/08 09:42:15;;;;;;;2.30;1.50;;;34.60;44.10;;;;;;4946919;28;20065;-82
2022/08/08 09:45:09;;;;;;;1.90;1.60;;;34.60;44.50;;;;;;4937332;28;20423;-81
2022/08/08 09:47:37;;;;;;;1.60;1.50;;;34.70;43.30;;;;;;4935160;28;20054;-81
2022/08/08 09:50:06;;;;;;;2.35;1.60;;;34.80;44.40;;;;;;4923900;28;20125;-82
2022/08/08 09:52:35;;;;;;;1.37;1.27;;;34.90;43.90;;;;;;4949414;28;20035;-81
2022/08/08 09:55:01;;;;;;;1.58;1.48;;;35.00;44.20;;;;;;4961025;28;20085;-82
2022/08/08 09:57:39;;;;;;;1.40;1.30;;;35.20;43.70;;;;;;4957790;28;20035;-81
2022/08/08 10:00:09;;;;;;;1.90;1.52;;;35.40;42.00;;;;;;4943942;28;20573;-82
2022/08/08 10:02:38;;;;;;;2.30;1.80;;;35.50;42.20;;;;;;4951302;28;20015;-82
2022/08/08 10:05:16;;;;;;;1.90;1.70;;;35.80;42.20;;;;;;4924242;28;20029;-80
2022/08/08 10:07:50;;;;;;;1.73;1.63;;;35.90;40.70;;;;;;4952494;28;20042;-82
2022/08/08 10:10:25;;;;;;;1.90;1.52;;;36.10;41.40;;;;;;4948674;28;20324;-82
2022/08/08 10:12:51;;;;;;;2.30;1.73;;;36.20;40.00;;;;;;4950190;28;20058;-81
2022/08/08 10:15:17;;;;;;;2.13;1.80;;;36.40;40.40;;;;;;4949145;28;20039;-81
2022/08/08 10:17:47;;;;;;;1.90;1.43;;;36.50;40.10;;;;;;4943193;28;20799;-81
2022/08/08 10:20:14;;;;;;;1.63;1.52;;;36.60;39.00;;;;;;4941510;28;20272;-80
2022/08/08 10:22:58;;;;;;;1.60;1.50;;;36.60;39.40;;;;;;4939661;28;20038;-80
2022/08/08 10:25:25;;;;;;;1.70;1.60;;;36.70;38.00;;;;;;4949005;28;20038;-81
2022/08/08 10:27:52;;;;;;;1.80;1.70;;;36.80;39.20;;;;;;4941117;28;20042;-81
2022/08/08 10:30:20;;;;;;;1.80;1.70;;;36.90;38.90;;;;;;4952183;28;20027;-80
2022/08/08 10:32:57;;;;;;;1.55;1.45;;;37.10;38.50;;;;;;4932641;28;20081;-82
2022/08/08 10:35:29;;;;;;;1.55;1.40;;;37.10;37.00;;;;;;4956193;28;20065;-79
2022/08/08 10:38:04;;;;;;;2.15;1.70;;;37.30;37.00;;;;;;4916507;28;20031;-80
2022/08/08 10:40:31;;;;;;;1.95;1.60;;;37.30;36.00;;;;;;4943559;28;20019;-82
2022/08/08 10:43:03;;;;;;;2.07;1.87;;;37.40;36.80;;;;;;4945364;28;20632;-80
2022/08/08 10:45:29;;;;;;;1.60;1.50;;;37.40;35.40;;;;;;4947309;28;20034;-80
2022/08/08 10:47:59;;;;;;;3.45;1.48;;;37.50;36.00;;;;;;4950660;28;20868;-82
2022/08/08 10:50:36;;;;;;;1.45;1.30;;;37.50;35.10;;;;;;4929516;28;20033;-82
2022/08/08 10:53:07;;;;;;;2.10;1.75;;;37.50;34.70;;;;;;4911004;28;20033;-82
2022/08/08 10:55:34;;;;;;;2.20;1.70;;;37.50;35.20;;;;;;4947435;28;20122;-82
2022/08/08 10:58:05;;;;;;;2.30;1.75;;;37.60;36.00;;;;;;4957509;28;20023;-81
2022/08/08 11:00:31;;;;;;;2.47;1.55;;;37.70;35.50;;;;;;4937850;28;20059;-81
2022/08/08 11:03:09;;;;;;;1.75;1.65;;;37.80;35.30;;;;;;4951659;28;20668;-82
2022/08/08 11:05:46;;;;;;;1.70;1.30;;;37.80;34.40;;;;;;4950739;28;20021;-81
2022/08/08 11:08:27;;;;;;;2.17;1.50;;;37.60;33.00;;;;;;4919656;28;20023;-82
2022/08/08 11:11:04;;;;;;;2.38;1.80;;;37.40;33.40;;;;;;4938308;28;20249;-81
2022/08/08 11:13:59;;;;;;;1.50;1.40;;;37.30;33.90;;;;;;4956893;28;20046;-81
2022/08/08 11:16:28;;;;;;;2.17;1.52;;;37.40;33.80;;;;;;4943939;28;20233;-81
2022/08/08 11:18:56;;;;;;;2.67;1.60;;;37.30;33.80;;;;;;4944703;28;20106;-81
2022/08/08 11:21:23;;;;;;;1.50;1.30;;;37.10;33.40;;;;;;4948255;28;20044;-80
2022/08/08 11:23:52;;;;;;;1.60;1.50;;;36.90;33.20;;;;;;4934232;28;20085;-80
2022/08/08 11:26:18;;;;;;;1.48;1.35;;;36.70;33.80;;;;;;4956251;28;20039;-80
2022/08/08 11:28:45;;;;;;;1.63;1.52;;;36.80;34.40;;;;;;4942439;28;20035;-81
2022/08/08 11:31:15;;;;;;;1.75;1.65;;;36.80;34.40;;;;;;4952136;28;20047;-80
2022/08/08 11:33:47;;;;;;;2.20;1.60;;;37.00;34.20;;;;;;4953926;28;20253;-81
2022/08/08 11:36:13;;;;;;;1.92;1.55;;;37.20;34.40;;;;;;4953981;28;20614;-81
2022/08/08 11:38:45;;;;;;;1.90;1.55;;;37.30;34.70;;;;;;4916521;28;20049;-80
2022/08/08 11:41:11;;;;;;;1.30;1.20;;;37.50;34.00;;;;;;4948372;28;20026;-81
2022/08/08 11:43:38;;;;;;;1.95;1.73;;;37.60;33.90;;;;;;4946215;28;20416;-81
2022/08/08 11:46:05;;;;;;;2.50;1.43;;;37.60;33.50;;;;;;4957071;28;20114;-79
2022/08/08 11:48:32;;;;;;;1.90;1.55;;;37.70;33.40;;;;;;4938023;28;20031;-81
2022/08/08 11:50:59;;;;;;;2.47;1.45;;;37.90;33.20;;;;;;4947414;28;20027;-80
2022/08/08 11:53:25;;;;;;;1.40;1.30;;;38.00;33.40;;;;;;4924029;28;20142;-80
2022/08/08 11:55:51;;;;;;;1.33;1.23;;;38.10;33.10;;;;;;4963976;28;20291;-81
2022/08/08 11:58:18;;;;;;;1.97;1.50;;;38.20;32.90;;;;;;4953107;28;20031;-80
2022/08/08 12:00:47;;;;;;;1.50;1.40;;;38.40;33.00;;;;;;4964550;28;20041;-81
2022/08/08 12:03:29;;;;;;;1.80;1.65;;;38.50;32.50;;;;;;4931688;28;20507;-80
2022/08/08 12:05:55;;;;;;;1.60;1.50;;;38.60;31.70;;;;;;4954917;28;20179;-81
2022/08/08 12:08:33;;;;;;;1.57;1.17;;;38.70;32.20;;;;;;4956377;28;20771;-81
2022/08/08 12:11:01;;;;;;;1.52;1.35;;;38.80;31.10;;;;;;4935935;28;20031;-80
2022/08/08 12:13:27;;;;;;;1.67;1.40;;;38.90;31.20;;;;;;4950471;28;20469;-81
2022/08/08 12:15:54;;;;;;;1.40;1.30;;;39.00;31.40;;;;;;4953336;28;20030;-81
2022/08/08 12:18:23;;;;;;;1.50;1.25;;;39.10;31.20;;;;;;4964197;28;20304;-79
2022/08/08 12:20:50;;;;;;;1.63;1.40;;;39.20;31.10;;;;;;4946172;28;20085;-80
2022/08/08 12:23:34;;;;;;;1.52;1.08;;;39.30;31.20;;;;;;4944437;28;22214;-81
2022/08/08 12:26:20;;;;;;;1.55;1.42;;;39.50;30.20;;;;;;4932622;28;20082;-81
2022/08/08 12:28:56;;;;;;;1.20;1.00;;;39.60;30.50;;;;;;4946345;28;20019;-81
2022/08/08 12:31:33;;;;;;;1.63;1.33;;;39.60;30.00;;;;;;4936774;28;20023;-80
2022/08/08 12:34:00;;;;;;;1.80;1.50;;;39.60;29.60;;;;;;4975905;28;20038;-82
2022/08/08 12:36:36;;;;;;;1.95;1.20;;;39.50;29.60;;;;;;4921338;28;20039;-80
2022/08/08 12:39:02;;;;;;;1.23;1.13;;;39.10;29.50;;;;;;4969011;28;20416;-80
2022/08/08 12:41:28;;;;;;;1.73;1.20;;;38.80;29.20;;;;;;4934266;28;20089;-81
2022/08/08 12:44:07;;;;;;;2.10;1.20;;;38.60;29.80;;;;;;4955231;28;20066;-80
2022/08/08 12:46:33;;;;;;;1.60;1.42;;;38.40;29.70;;;;;;4958061;28;20096;-80
2022/08/08 12:49:01;;;;;;;1.40;1.30;;;38.30;30.00;;;;;;4957402;28;20533;-80
2022/08/08 12:51:39;;;;;;;2.27;1.50;;;38.20;30.00;;;;;;4932064;28;20507;-81
2022/08/08 12:54:06;;;;;;;1.48;1.27;;;38.00;29.40;;;;;;4936564;28;20391;-81
2022/08/08 12:56:39;;;;;;;2.05;1.13;;;37.80;29.80;;;;;;4928566;28;20538;-81
2022/08/08 12:59:15;;;;;;;1.75;1.20;;;37.50;29.50;;;;;;4938684;28;20463;-80
2022/08/08 13:01:41;;;;;;;1.27;1.17;;;37.40;29.80;;;;;;4939994;28;20660;-80
2022/08/08 13:04:14;;;;;;;1.40;1.30;;;37.40;30.40;;;;;;4959281;28;20022;-81
2022/08/08 13:06:55;;;;;;;1.73;1.30;;;37.40;30.30;;;;;;4950691;28;20383;-80
2022/08/08 13:09:56;;;;;;;1.60;1.10;;;37.40;30.00;;;;;;4942421;28;20018;-79
2022/08/08 13:12:38;;;;;;;1.13;1.10;;;37.20;29.80;;;;;;4918040;28;20034;-81
2022/08/08 13:15:07;;;;;;;1.20;1.10;;;37.00;29.70;;;;;;4923292;28;20375;-80
2022/08/08 13:17:34;;;;;;;1.10;1.00;;;36.90;30.10;;;;;;4937241;28;20022;-80
2022/08/08 13:20:00;;;;;;;1.38;1.10;;;36.90;30.40;;;;;;4943569;28;20065;-81
2022/08/08 13:22:26;;;;;;;1.30;1.20;;;36.90;30.50;;;;;;4937181;28;20494;-79